sensor_id;sensor_type;location;lat;lon;timestamp;P1;durP1;ratioP1;P2;durP2;ratioP2
46753;SDS011;32500;50.620;3.400;2023-03-30T00:00:38;72.43;;;50.20;;
46753;SDS011;32500;50.620;3.400;2023-03-30T00:03:06;72.53;;;50.60;;
46753;SDS011;32500;50.620;3.400;2023-03-30T00:05:33;73.97;;;50.30;;
46753;SDS011;32500;50.620;3.400;2023-03-30T00:07:59;73.57;;;50.38;;
46753;SDS011;32500;50.620;3.400;2023-03-30T00:10:25;71.82;;;50.13;;
46753;SDS011;32500;50.620;3.400;2023-03-30T00:12:51;73.25;;;50.22;;
46753;SDS011;32500;50.620;3.400;2023-03-30T00:15:17;72.18;;;50.17;;
46753;SDS011;32500;50.620;3.400;2023-03-30T00:17:45;73.00;;;50.47;;
46753;SDS011;32500;50.620;3.400;2023-03-30T00:20:12;72.30;;;50.33;;
46753;SDS011;32500;50.620;3.400;2023-03-30T00:22:39;75.25;;;50.55;;
46753;SDS011;32500;50.620;3.400;2023-03-30T00:25:06;71.68;;;50.00;;
46753;SDS011;32500;50.620;3.400;2023-03-30T00:27:35;72.05;;;49.88;;
46753;SDS011;32500;50.620;3.400;2023-03-30T00:30:02;73.93;;;50.60;;
46753;SDS011;32500;50.620;3.400;2023-03-30T00:32:29;73.45;;;50.53;;
46753;SDS011;32500;50.620;3.400;2023-03-30T00:34:54;73.38;;;50.22;;
46753;SDS011;32500;50.620;3.400;2023-03-30T00:37:20;73.90;;;50.40;;
46753;SDS011;32500;50.620;3.400;2023-03-30T00:39:46;72.32;;;50.25;;
46753;SDS011;32500;50.620;3.400;2023-03-30T00:42:13;72.93;;;50.22;;
46753;SDS011;32500;50.620;3.400;2023-03-30T00:50:36;71.90;;;50.07;;
46753;SDS011;32500;50.620;3.400;2023-03-30T00:53:17;71.63;;;50.05;;
46753;SDS011;32500;50.620;3.400;2023-03-30T00:55:46;71.07;;;49.53;;
46753;SDS011;32500;50.620;3.400;2023-03-30T00:58:14;71.95;;;49.85;;
46753;SDS011;32500;50.620;3.400;2023-03-30T01:00:42;71.53;;;49.97;;
46753;SDS011;32500;50.620;3.400;2023-03-30T01:03:27;71.57;;;49.80;;
46753;SDS011;32500;50.620;3.400;2023-03-30T01:05:56;72.63;;;49.50;;
46753;SDS011;32500;50.620;3.400;2023-03-30T01:08:25;71.40;;;49.95;;
46753;SDS011;32500;50.620;3.400;2023-03-30T01:10:56;72.35;;;49.90;;
46753;SDS011;32500;50.620;3.400;2023-03-30T01:13:25;71.95;;;49.83;;
46753;SDS011;32500;50.620;3.400;2023-03-30T01:18:39;70.93;;;49.72;;
46753;SDS011;32500;50.620;3.400;2023-03-30T01:31:01;71.95;;;49.95;;
46753;SDS011;32500;50.620;3.400;2023-03-30T01:47:53;70.57;;;49.75;;
46753;SDS011;32500;50.620;3.400;2023-03-30T01:50:42;70.63;;;49.75;;
46753;SDS011;32500;50.620;3.400;2023-03-30T01:53:22;71.00;;;49.72;;
46753;SDS011;32500;50.620;3.400;2023-03-30T01:58:47;71.50;;;49.95;;
46753;SDS011;32500;50.620;3.400;2023-03-30T02:01:26;70.82;;;49.60;;
46753;SDS011;32500;50.620;3.400;2023-03-30T02:03:57;71.13;;;49.75;;
46753;SDS011;32500;50.620;3.400;2023-03-30T02:06:26;71.63;;;50.17;;
46753;SDS011;32500;50.620;3.400;2023-03-30T02:09:02;71.38;;;50.05;;
46753;SDS011;32500;50.620;3.400;2023-03-30T02:11:30;71.57;;;49.90;;
46753;SDS011;32500;50.620;3.400;2023-03-30T02:13:56;70.85;;;49.95;;
46753;SDS011;32500;50.620;3.400;2023-03-30T02:16:38;71.50;;;50.15;;
46753;SDS011;32500;50.620;3.400;2023-03-30T02:19:08;71.57;;;49.88;;
46753;SDS011;32500;50.620;3.400;2023-03-30T02:21:34;71.97;;;49.85;;
46753;SDS011;32500;50.620;3.400;2023-03-30T02:23:59;71.28;;;49.75;;
46753;SDS011;32500;50.620;3.400;2023-03-30T02:26:28;72.15;;;50.10;;
46753;SDS011;32500;50.620;3.400;2023-03-30T02:28:54;71.97;;;50.25;;
46753;SDS011;32500;50.620;3.400;2023-03-30T02:31:20;70.97;;;49.92;;
46753;SDS011;32500;50.620;3.400;2023-03-30T02:36:39;70.53;;;49.67;;
46753;SDS011;32500;50.620;3.400;2023-03-30T02:39:23;70.43;;;49.63;;
46753;SDS011;32500;50.620;3.400;2023-03-30T02:42:16;71.47;;;49.95;;
46753;SDS011;32500;50.620;3.400;2023-03-30T02:49:51;70.88;;;49.90;;
46753;SDS011;32500;50.620;3.400;2023-03-30T02:58:01;71.88;;;49.88;;
46753;SDS011;32500;50.620;3.400;2023-03-30T03:00:51;70.80;;;49.92;;
46753;SDS011;32500;50.620;3.400;2023-03-30T03:03:36;70.80;;;49.97;;
46753;SDS011;32500;50.620;3.400;2023-03-30T03:06:05;70.15;;;49.67;;
46753;SDS011;32500;50.620;3.400;2023-03-30T03:08:37;71.55;;;49.90;;
46753;SDS011;32500;50.620;3.400;2023-03-30T03:11:06;70.78;;;49.80;;
46753;SDS011;32500;50.620;3.400;2023-03-30T03:13:32;70.90;;;49.58;;
46753;SDS011;32500;50.620;3.400;2023-03-30T03:16:01;72.15;;;49.72;;
46753;SDS011;32500;50.620;3.400;2023-03-30T03:18:27;70.82;;;49.67;;
46753;SDS011;32500;50.620;3.400;2023-03-30T03:20:53;71.93;;;49.67;;
46753;SDS011;32500;50.620;3.400;2023-03-30T03:23:18;70.82;;;49.72;;
46753;SDS011;32500;50.620;3.400;2023-03-30T03:25:44;71.22;;;49.88;;
46753;SDS011;32500;50.620;3.400;2023-03-30T03:28:10;71.45;;;49.85;;
46753;SDS011;32500;50.620;3.400;2023-03-30T03:30:35;70.47;;;49.67;;
46753;SDS011;32500;50.620;3.400;2023-03-30T03:33:01;71.50;;;50.03;;
46753;SDS011;32500;50.620;3.400;2023-03-30T03:35:27;70.50;;;49.63;;
46753;SDS011;32500;50.620;3.400;2023-03-30T03:37:53;70.80;;;49.88;;
46753;SDS011;32500;50.620;3.400;2023-03-30T03:40:19;71.65;;;49.72;;
46753;SDS011;32500;50.620;3.400;2023-03-30T03:42:45;71.07;;;49.95;;
46753;SDS011;32500;50.620;3.400;2023-03-30T03:45:11;70.35;;;49.38;;
46753;SDS011;32500;50.620;3.400;2023-03-30T03:47:36;71.38;;;50.03;;
46753;SDS011;32500;50.620;3.400;2023-03-30T03:50:02;70.80;;;49.85;;
46753;SDS011;32500;50.620;3.400;2023-03-30T03:52:31;71.50;;;49.80;;
46753;SDS011;32500;50.620;3.400;2023-03-30T03:54:56;70.80;;;49.70;;
46753;SDS011;32500;50.620;3.400;2023-03-30T03:57:22;70.75;;;49.97;;
46753;SDS011;32500;50.620;3.400;2023-03-30T03:59:48;71.05;;;49.95;;
46753;SDS011;32500;50.620;3.400;2023-03-30T04:02:15;72.32;;;49.78;;
46753;SDS011;32500;50.620;3.400;2023-03-30T04:04:41;72.00;;;49.65;;
46753;SDS011;32500;50.620;3.400;2023-03-30T04:07:06;70.80;;;49.90;;
46753;SDS011;32500;50.620;3.400;2023-03-30T04:09:32;71.55;;;50.15;;
46753;SDS011;32500;50.620;3.400;2023-03-30T04:11:58;70.85;;;49.55;;
46753;SDS011;32500;50.620;3.400;2023-03-30T04:14:23;70.10;;;49.53;;
46753;SDS011;32500;50.620;3.400;2023-03-30T04:16:49;72.00;;;51.03;;
46753;SDS011;32500;50.620;3.400;2023-03-30T04:21:52;71.63;;;50.03;;
46753;SDS011;32500;50.620;3.400;2023-03-30T04:24:19;71.38;;;49.67;;
46753;SDS011;32500;50.620;3.400;2023-03-30T04:26:47;71.55;;;50.13;;
46753;SDS011;32500;50.620;3.400;2023-03-30T04:29:15;71.10;;;49.65;;
46753;SDS011;32500;50.620;3.400;2023-03-30T04:31:42;71.15;;;49.83;;
46753;SDS011;32500;50.620;3.400;2023-03-30T04:34:11;72.35;;;50.13;;
46753;SDS011;32500;50.620;3.400;2023-03-30T04:36:37;71.05;;;49.92;;
46753;SDS011;32500;50.620;3.400;2023-03-30T04:39:07;70.72;;;49.90;;
46753;SDS011;32500;50.620;3.400;2023-03-30T04:41:35;71.00;;;50.25;;
46753;SDS011;32500;50.620;3.400;2023-03-30T04:44:03;72.15;;;50.05;;
46753;SDS011;32500;50.620;3.400;2023-03-30T04:46:33;71.20;;;49.90;;
46753;SDS011;32500;50.620;3.400;2023-03-30T04:49:00;72.32;;;49.95;;
46753;SDS011;32500;50.620;3.400;2023-03-30T04:51:26;71.25;;;49.85;;
46753;SDS011;32500;50.620;3.400;2023-03-30T04:53:52;71.88;;;49.92;;
46753;SDS011;32500;50.620;3.400;2023-03-30T04:56:18;70.55;;;49.65;;
46753;SDS011;32500;50.620;3.400;2023-03-30T04:58:44;70.55;;;49.90;;
46753;SDS011;32500;50.620;3.400;2023-03-30T05:01:10;71.97;;;50.00;;
46753;SDS011;32500;50.620;3.400;2023-03-30T05:03:36;71.35;;;49.95;;
46753;SDS011;32500;50.620;3.400;2023-03-30T05:06:02;72.00;;;49.92;;
46753;SDS011;32500;50.620;3.400;2023-03-30T05:08:28;71.57;;;49.88;;
46753;SDS011;32500;50.620;3.400;2023-03-30T05:10:54;74.30;;;49.90;;
46753;SDS011;32500;50.620;3.400;2023-03-30T05:13:21;71.70;;;50.00;;
46753;SDS011;32500;50.620;3.400;2023-03-30T05:15:53;71.55;;;49.97;;
46753;SDS011;32500;50.620;3.400;2023-03-30T05:18:20;72.50;;;49.95;;
46753;SDS011;32500;50.620;3.400;2023-03-30T05:20:45;72.93;;;49.97;;
46753;SDS011;32500;50.620;3.400;2023-03-30T05:23:11;72.63;;;49.95;;
46753;SDS011;32500;50.620;3.400;2023-03-30T05:25:37;72.07;;;49.67;;
46753;SDS011;32500;50.620;3.400;2023-03-30T05:28:02;71.85;;;49.90;;
46753;SDS011;32500;50.620;3.400;2023-03-30T05:30:28;75.72;;;50.35;;
46753;SDS011;32500;50.620;3.400;2023-03-30T05:32:53;72.90;;;50.25;;
46753;SDS011;32500;50.620;3.400;2023-03-30T05:35:19;71.80;;;50.38;;
46753;SDS011;32500;50.620;3.400;2023-03-30T05:37:47;74.63;;;50.20;;
46753;SDS011;32500;50.620;3.400;2023-03-30T05:40:13;71.45;;;49.90;;
46753;SDS011;32500;50.620;3.400;2023-03-30T05:42:40;72.90;;;50.15;;
46753;SDS011;32500;50.620;3.400;2023-03-30T05:45:05;74.57;;;50.55;;
46753;SDS011;32500;50.620;3.400;2023-03-30T05:47:32;73.70;;;50.30;;
46753;SDS011;32500;50.620;3.400;2023-03-30T05:49:59;75.93;;;50.50;;
46753;SDS011;32500;50.620;3.400;2023-03-30T05:52:26;76.90;;;50.30;;
46753;SDS011;32500;50.620;3.400;2023-03-30T05:54:52;84.45;;;50.45;;
46753;SDS011;32500;50.620;3.400;2023-03-30T05:57:17;72.10;;;50.13;;
46753;SDS011;32500;50.620;3.400;2023-03-30T05:59:43;73.40;;;50.25;;
46753;SDS011;32500;50.620;3.400;2023-03-30T06:02:09;76.47;;;50.28;;
46753;SDS011;32500;50.620;3.400;2023-03-30T06:04:37;75.97;;;50.80;;
46753;SDS011;32500;50.620;3.400;2023-03-30T06:07:03;79.22;;;50.17;;
46753;SDS011;32500;50.620;3.400;2023-03-30T06:09:29;74.75;;;50.65;;
46753;SDS011;32500;50.620;3.400;2023-03-30T06:11:55;73.45;;;50.42;;
46753;SDS011;32500;50.620;3.400;2023-03-30T06:14:22;73.38;;;50.47;;
46753;SDS011;32500;50.620;3.400;2023-03-30T06:16:48;79.85;;;50.95;;
46753;SDS011;32500;50.620;3.400;2023-03-30T06:19:13;74.18;;;50.47;;
46753;SDS011;32500;50.620;3.400;2023-03-30T06:21:40;74.05;;;50.58;;
46753;SDS011;32500;50.620;3.400;2023-03-30T06:24:06;74.50;;;50.53;;
46753;SDS011;32500;50.620;3.400;2023-03-30T06:26:31;74.15;;;50.45;;
46753;SDS011;32500;50.620;3.400;2023-03-30T06:28:57;72.45;;;50.17;;
46753;SDS011;32500;50.620;3.400;2023-03-30T06:31:23;74.30;;;50.53;;
46753;SDS011;32500;50.620;3.400;2023-03-30T06:33:49;72.93;;;50.13;;
46753;SDS011;32500;50.620;3.400;2023-03-30T06:36:15;74.97;;;50.72;;
46753;SDS011;32500;50.620;3.400;2023-03-30T06:38:41;74.00;;;50.45;;
46753;SDS011;32500;50.620;3.400;2023-03-30T06:41:09;75.80;;;50.65;;
46753;SDS011;32500;50.620;3.400;2023-03-30T06:43:39;74.28;;;50.20;;
46753;SDS011;32500;50.620;3.400;2023-03-30T06:46:06;86.28;;;50.63;;
46753;SDS011;32500;50.620;3.400;2023-03-30T06:48:35;73.63;;;50.67;;
46753;SDS011;32500;50.620;3.400;2023-03-30T06:51:00;76.35;;;50.80;;
46753;SDS011;32500;50.620;3.400;2023-03-30T06:53:27;76.22;;;50.67;;
46753;SDS011;32500;50.620;3.400;2023-03-30T06:55:54;75.55;;;50.97;;
46753;SDS011;32500;50.620;3.400;2023-03-30T06:58:21;77.40;;;50.63;;
46753;SDS011;32500;50.620;3.400;2023-03-30T07:00:48;74.97;;;50.60;;
46753;SDS011;32500;50.620;3.400;2023-03-30T07:03:14;74.70;;;50.45;;
46753;SDS011;32500;50.620;3.400;2023-03-30T07:05:43;73.72;;;50.38;;
46753;SDS011;32500;50.620;3.400;2023-03-30T07:08:16;74.28;;;50.20;;
46753;SDS011;32500;50.620;3.400;2023-03-30T07:10:44;74.88;;;50.67;;
46753;SDS011;32500;50.620;3.400;2023-03-30T07:13:11;77.18;;;50.60;;
46753;SDS011;32500;50.620;3.400;2023-03-30T07:15:36;72.90;;;50.45;;
46753;SDS011;32500;50.620;3.400;2023-03-30T07:18:02;75.78;;;50.45;;
46753;SDS011;32500;50.620;3.400;2023-03-30T07:20:28;75.80;;;50.72;;
46753;SDS011;32500;50.620;3.400;2023-03-30T07:22:54;75.53;;;50.70;;
46753;SDS011;32500;50.620;3.400;2023-03-30T07:25:20;74.63;;;50.65;;
46753;SDS011;32500;50.620;3.400;2023-03-30T07:27:45;76.43;;;50.72;;
46753;SDS011;32500;50.620;3.400;2023-03-30T07:30:12;73.72;;;50.45;;
46753;SDS011;32500;50.620;3.400;2023-03-30T07:32:38;75.15;;;50.65;;
46753;SDS011;32500;50.620;3.400;2023-03-30T07:35:04;75.38;;;50.35;;
46753;SDS011;32500;50.620;3.400;2023-03-30T07:37:30;74.15;;;50.67;;
46753;SDS011;32500;50.620;3.400;2023-03-30T07:39:56;75.25;;;50.35;;
46753;SDS011;32500;50.620;3.400;2023-03-30T07:42:22;75.35;;;50.72;;
46753;SDS011;32500;50.620;3.400;2023-03-30T07:44:48;74.40;;;50.47;;
46753;SDS011;32500;50.620;3.400;2023-03-30T07:47:14;73.25;;;50.65;;
46753;SDS011;32500;50.620;3.400;2023-03-30T07:49:39;75.00;;;50.55;;
46753;SDS011;32500;50.620;3.400;2023-03-30T07:54:33;75.32;;;50.80;;
46753;SDS011;32500;50.620;3.400;2023-03-30T07:56:59;76.32;;;50.63;;
46753;SDS011;32500;50.620;3.400;2023-03-30T07:59:25;74.65;;;50.60;;
46753;SDS011;32500;50.620;3.400;2023-03-30T08:01:51;75.72;;;51.10;;
46753;SDS011;32500;50.620;3.400;2023-03-30T08:04:18;75.32;;;51.00;;
46753;SDS011;32500;50.620;3.400;2023-03-30T08:06:44;73.72;;;50.80;;
46753;SDS011;32500;50.620;3.400;2023-03-30T08:09:11;73.85;;;50.10;;
46753;SDS011;32500;50.620;3.400;2023-03-30T08:11:37;78.20;;;50.85;;
46753;SDS011;32500;50.620;3.400;2023-03-30T08:14:03;75.18;;;50.95;;
46753;SDS011;32500;50.620;3.400;2023-03-30T08:16:29;76.25;;;50.80;;
46753;SDS011;32500;50.620;3.400;2023-03-30T08:18:55;77.50;;;50.75;;
46753;SDS011;32500;50.620;3.400;2023-03-30T08:21:21;74.97;;;50.45;;
46753;SDS011;32500;50.620;3.400;2023-03-30T08:23:49;78.20;;;51.03;;
46753;SDS011;32500;50.620;3.400;2023-03-30T08:26:21;75.68;;;50.85;;
46753;SDS011;32500;50.620;3.400;2023-03-30T08:28:47;76.95;;;50.92;;
46753;SDS011;32500;50.620;3.400;2023-03-30T08:31:13;76.10;;;50.95;;
46753;SDS011;32500;50.620;3.400;2023-03-30T08:33:42;78.43;;;51.17;;
46753;SDS011;32500;50.620;3.400;2023-03-30T08:36:09;75.28;;;51.03;;
46753;SDS011;32500;50.620;3.400;2023-03-30T08:38:36;74.10;;;50.67;;
46753;SDS011;32500;50.620;3.400;2023-03-30T08:41:09;75.35;;;50.60;;
46753;SDS011;32500;50.620;3.400;2023-03-30T08:44:02;75.95;;;51.05;;
46753;SDS011;32500;50.620;3.400;2023-03-30T08:46:43;74.05;;;50.47;;
46753;SDS011;32500;50.620;3.400;2023-03-30T08:49:12;75.50;;;50.80;;
46753;SDS011;32500;50.620;3.400;2023-03-30T08:51:40;75.85;;;50.65;;
46753;SDS011;32500;50.620;3.400;2023-03-30T08:54:08;73.93;;;50.78;;
46753;SDS011;32500;50.620;3.400;2023-03-30T08:56:39;74.32;;;50.85;;
46753;SDS011;32500;50.620;3.400;2023-03-30T09:04:18;76.73;;;51.07;;
46753;SDS011;32500;50.620;3.400;2023-03-30T09:06:53;74.97;;;50.97;;
46753;SDS011;32500;50.620;3.400;2023-03-30T09:09:24;75.43;;;51.13;;
46753;SDS011;32500;50.620;3.400;2023-03-30T09:11:58;77.78;;;50.92;;
46753;SDS011;32500;50.620;3.400;2023-03-30T09:14:57;77.90;;;51.28;;
46753;SDS011;32500;50.620;3.400;2023-03-30T09:18:14;77.57;;;50.72;;
46753;SDS011;32500;50.620;3.400;2023-03-30T09:20:26;77.70;;;50.85;;
46753;SDS011;32500;50.620;3.400;2023-03-30T09:22:54;81.40;;;51.25;;
46753;SDS011;32500;50.620;3.400;2023-03-30T09:28:18;75.57;;;51.22;;
46753;SDS011;32500;50.620;3.400;2023-03-30T09:30:58;78.47;;;51.25;;
46753;SDS011;32500;50.620;3.400;2023-03-30T09:34:04;76.88;;;51.33;;
46753;SDS011;32500;50.620;3.400;2023-03-30T09:37:12;76.30;;;51.00;;
46753;SDS011;32500;50.620;3.400;2023-03-30T09:39:36;76.25;;;51.22;;
46753;SDS011;32500;50.620;3.400;2023-03-30T09:45:16;76.63;;;51.25;;
46753;SDS011;32500;50.620;3.400;2023-03-30T09:47:46;81.40;;;51.23;;
46753;SDS011;32500;50.620;3.400;2023-03-30T09:50:16;72.90;;;50.70;;
46753;SDS011;32500;50.620;3.400;2023-03-30T09:55:28;78.43;;;50.97;;
46753;SDS011;32500;50.620;3.400;2023-03-30T09:58:09;80.30;;;51.65;;
46753;SDS011;32500;50.620;3.400;2023-03-30T10:00:35;76.10;;;51.28;;
46753;SDS011;32500;50.620;3.400;2023-03-30T10:03:03;79.30;;;51.42;;
46753;SDS011;32500;50.620;3.400;2023-03-30T10:05:31;77.43;;;51.25;;
46753;SDS011;32500;50.620;3.400;2023-03-30T10:08:04;75.80;;;51.25;;
46753;SDS011;32500;50.620;3.400;2023-03-30T10:10:43;76.32;;;51.17;;
46753;SDS011;32500;50.620;3.400;2023-03-30T10:13:12;77.93;;;51.55;;
46753;SDS011;32500;50.620;3.400;2023-03-30T10:18:18;76.63;;;50.65;;
46753;SDS011;32500;50.620;3.400;2023-03-30T10:23:38;81.10;;;51.33;;
46753;SDS011;32500;50.620;3.400;2023-03-30T10:26:13;79.00;;;51.40;;
46753;SDS011;32500;50.620;3.400;2023-03-30T10:31:19;77.53;;;51.42;;
46753;SDS011;32500;50.620;3.400;2023-03-30T10:33:45;78.07;;;51.55;;
46753;SDS011;32500;50.620;3.400;2023-03-30T10:36:12;80.38;;;51.70;;
46753;SDS011;32500;50.620;3.400;2023-03-30T10:38:41;78.20;;;51.63;;
46753;SDS011;32500;50.620;3.400;2023-03-30T10:41:08;79.30;;;51.58;;
46753;SDS011;32500;50.620;3.400;2023-03-30T10:43:37;78.63;;;51.53;;
46753;SDS011;32500;50.620;3.400;2023-03-30T10:46:15;78.35;;;51.67;;
46753;SDS011;32500;50.620;3.400;2023-03-30T10:48:59;78.40;;;51.45;;
46753;SDS011;32500;50.620;3.400;2023-03-30T10:54:34;80.70;;;52.03;;
46753;SDS011;32500;50.620;3.400;2023-03-30T10:57:11;77.53;;;51.97;;
46753;SDS011;32500;50.620;3.400;2023-03-30T11:05:39;79.78;;;51.97;;
46753;SDS011;32500;50.620;3.400;2023-03-30T11:08:28;80.18;;;51.65;;
46753;SDS011;32500;50.620;3.400;2023-03-30T11:10:57;80.53;;;51.83;;
46753;SDS011;32500;50.620;3.400;2023-03-30T11:13:28;80.88;;;52.05;;
46753;SDS011;32500;50.620;3.400;2023-03-30T11:16:12;80.10;;;51.85;;
46753;SDS011;32500;50.620;3.400;2023-03-30T11:19:09;81.70;;;51.97;;
46753;SDS011;32500;50.620;3.400;2023-03-30T11:22:03;81.38;;;52.35;;
46753;SDS011;32500;50.620;3.400;2023-03-30T11:24:50;80.18;;;51.78;;
46753;SDS011;32500;50.620;3.400;2023-03-30T11:27:26;80.88;;;52.75;;
46753;SDS011;32500;50.620;3.400;2023-03-30T11:35:43;78.45;;;52.05;;
46753;SDS011;32500;50.620;3.400;2023-03-30T11:38:28;82.15;;;52.08;;
46753;SDS011;32500;50.620;3.400;2023-03-30T11:41:12;79.47;;;51.97;;
46753;SDS011;32500;50.620;3.400;2023-03-30T11:43:40;80.70;;;52.42;;
46753;SDS011;32500;50.620;3.400;2023-03-30T11:48:51;80.88;;;52.08;;
46753;SDS011;32500;50.620;3.400;2023-03-30T11:56:36;78.85;;;52.20;;
46753;SDS011;32500;50.620;3.400;2023-03-30T11:59:12;81.80;;;52.35;;
46753;SDS011;32500;50.620;3.400;2023-03-30T12:08:40;80.22;;;52.55;;
46753;SDS011;32500;50.620;3.400;2023-03-30T12:14:12;81.95;;;52.35;;
46753;SDS011;32500;50.620;3.400;2023-03-30T12:16:56;82.53;;;52.65;;
46753;SDS011;32500;50.620;3.400;2023-03-30T12:19:37;80.97;;;52.85;;
46753;SDS011;32500;50.620;3.400;2023-03-30T12:22:14;82.13;;;52.45;;
46753;SDS011;32500;50.620;3.400;2023-03-30T12:27:22;79.70;;;52.28;;
46753;SDS011;32500;50.620;3.400;2023-03-30T12:29:53;82.25;;;52.38;;
46753;SDS011;32500;50.620;3.400;2023-03-30T12:32:36;83.32;;;52.55;;
46753;SDS011;32500;50.620;3.400;2023-03-30T12:35:16;80.97;;;52.05;;
46753;SDS011;32500;50.620;3.400;2023-03-30T12:38:12;82.70;;;52.60;;
46753;SDS011;32500;50.620;3.400;2023-03-30T12:40:44;81.22;;;52.33;;
46753;SDS011;32500;50.620;3.400;2023-03-30T12:46:03;80.10;;;52.20;;
46753;SDS011;32500;50.620;3.400;2023-03-30T12:51:26;81.82;;;52.35;;
46753;SDS011;32500;50.620;3.400;2023-03-30T12:57:11;81.95;;;52.17;;
46753;SDS011;32500;50.620;3.400;2023-03-30T13:00:45;81.13;;;52.35;;
46753;SDS011;32500;50.620;3.400;2023-03-30T13:05:33;78.72;;;52.00;;
46753;SDS011;32500;50.620;3.400;2023-03-30T13:38:03;80.53;;;52.28;;
46753;SDS011;32500;50.620;3.400;2023-03-30T13:51:47;79.43;;;52.13;;
46753;SDS011;32500;50.620;3.400;2023-03-30T13:54:18;80.05;;;52.42;;
46753;SDS011;32500;50.620;3.400;2023-03-30T13:59:37;82.55;;;52.00;;
46753;SDS011;32500;50.620;3.400;2023-03-30T14:02:14;79.60;;;52.50;;
46753;SDS011;32500;50.620;3.400;2023-03-30T14:04:42;80.20;;;52.38;;
46753;SDS011;32500;50.620;3.400;2023-03-30T14:07:13;80.20;;;52.47;;
46753;SDS011;32500;50.620;3.400;2023-03-30T14:09:40;80.05;;;52.20;;
46753;SDS011;32500;50.620;3.400;2023-03-30T14:12:07;79.88;;;52.53;;
46753;SDS011;32500;50.620;3.400;2023-03-30T14:14:42;83.68;;;52.47;;
46753;SDS011;32500;50.620;3.400;2023-03-30T14:17:18;79.85;;;52.10;;
46753;SDS011;32500;50.620;3.400;2023-03-30T14:19:51;79.47;;;52.05;;
46753;SDS011;32500;50.620;3.400;2023-03-30T14:22:26;78.90;;;52.33;;
46753;SDS011;32500;50.620;3.400;2023-03-30T14:25:00;81.85;;;52.35;;
46753;SDS011;32500;50.620;3.400;2023-03-30T14:27:34;81.45;;;52.38;;
46753;SDS011;32500;50.620;3.400;2023-03-30T14:30:13;79.90;;;52.05;;
46753;SDS011;32500;50.620;3.400;2023-03-30T14:33:10;82.70;;;52.28;;
46753;SDS011;32500;50.620;3.400;2023-03-30T14:35:39;80.63;;;51.88;;
46753;SDS011;32500;50.620;3.400;2023-03-30T14:38:18;79.35;;;52.22;;
46753;SDS011;32500;50.620;3.400;2023-03-30T14:40:50;78.32;;;51.83;;
46753;SDS011;32500;50.620;3.400;2023-03-30T14:43:27;78.93;;;51.83;;
46753;SDS011;32500;50.620;3.400;2023-03-30T14:45:56;81.53;;;52.45;;
46753;SDS011;32500;50.620;3.400;2023-03-30T14:48:27;80.00;;;52.10;;
46753;SDS011;32500;50.620;3.400;2023-03-30T14:50:55;80.63;;;52.10;;
46753;SDS011;32500;50.620;3.400;2023-03-30T14:53:25;78.32;;;52.00;;
46753;SDS011;32500;50.620;3.400;2023-03-30T14:55:52;77.30;;;51.92;;
46753;SDS011;32500;50.620;3.400;2023-03-30T14:58:21;79.15;;;51.88;;
46753;SDS011;32500;50.620;3.400;2023-03-30T15:00:52;79.50;;;52.13;;
46753;SDS011;32500;50.620;3.400;2023-03-30T15:05:48;79.38;;;51.95;;
46753;SDS011;32500;50.620;3.400;2023-03-30T15:08:19;78.63;;;51.85;;
46753;SDS011;32500;50.620;3.400;2023-03-30T15:10:55;79.20;;;52.03;;
46753;SDS011;32500;50.620;3.400;2023-03-30T15:15:51;79.53;;;51.88;;
46753;SDS011;32500;50.620;3.400;2023-03-30T15:18:19;80.15;;;52.03;;
46753;SDS011;32500;50.620;3.400;2023-03-30T15:20:48;78.90;;;51.85;;
46753;SDS011;32500;50.620;3.400;2023-03-30T15:23:14;79.03;;;51.88;;
46753;SDS011;32500;50.620;3.400;2023-03-30T15:25:40;78.78;;;51.92;;
46753;SDS011;32500;50.620;3.400;2023-03-30T15:28:11;79.65;;;51.67;;
46753;SDS011;32500;50.620;3.400;2023-03-30T15:30:42;81.03;;;51.92;;
46753;SDS011;32500;50.620;3.400;2023-03-30T15:33:28;83.97;;;51.85;;
46753;SDS011;32500;50.620;3.400;2023-03-30T15:36:20;78.30;;;51.85;;
46753;SDS011;32500;50.620;3.400;2023-03-30T15:38:51;79.72;;;51.80;;
46753;SDS011;32500;50.620;3.400;2023-03-30T15:41:21;81.00;;;51.95;;
46753;SDS011;32500;50.620;3.400;2023-03-30T15:43:56;77.90;;;51.93;;
46753;SDS011;32500;50.620;3.400;2023-03-30T15:46:23;77.40;;;51.45;;
46753;SDS011;32500;50.620;3.400;2023-03-30T15:48:52;80.95;;;52.03;;
46753;SDS011;32500;50.620;3.400;2023-03-30T15:53:51;80.45;;;51.75;;
46753;SDS011;32500;50.620;3.400;2023-03-30T15:56:22;79.70;;;51.75;;
46753;SDS011;32500;50.620;3.400;2023-03-30T15:59:01;77.72;;;51.90;;
46753;SDS011;32500;50.620;3.400;2023-03-30T16:01:37;78.00;;;51.88;;
46753;SDS011;32500;50.620;3.400;2023-03-30T16:04:21;79.28;;;51.97;;
46753;SDS011;32500;50.620;3.400;2023-03-30T16:06:48;81.88;;;52.42;;
46753;SDS011;32500;50.620;3.400;2023-03-30T16:09:15;81.18;;;52.13;;
46753;SDS011;32500;50.620;3.400;2023-03-30T16:11:41;77.95;;;51.70;;
46753;SDS011;32500;50.620;3.400;2023-03-30T16:14:09;79.93;;;51.70;;
46753;SDS011;32500;50.620;3.400;2023-03-30T16:16:38;79.25;;;52.22;;
46753;SDS011;32500;50.620;3.400;2023-03-30T16:19:08;80.80;;;51.83;;
46753;SDS011;32500;50.620;3.400;2023-03-30T16:21:35;80.93;;;52.03;;
46753;SDS011;32500;50.620;3.400;2023-03-30T16:24:01;79.55;;;51.92;;
46753;SDS011;32500;50.620;3.400;2023-03-30T16:26:27;77.80;;;51.97;;
46753;SDS011;32500;50.620;3.400;2023-03-30T16:28:52;77.93;;;52.08;;
46753;SDS011;32500;50.620;3.400;2023-03-30T16:31:20;80.07;;;52.13;;
46753;SDS011;32500;50.620;3.400;2023-03-30T16:33:46;88.10;;;52.08;;
46753;SDS011;32500;50.620;3.400;2023-03-30T16:36:13;79.53;;;52.03;;
46753;SDS011;32500;50.620;3.400;2023-03-30T16:38:40;78.95;;;51.85;;
46753;SDS011;32500;50.620;3.400;2023-03-30T16:41:08;81.95;;;52.25;;
46753;SDS011;32500;50.620;3.400;2023-03-30T16:43:45;78.97;;;52.05;;
46753;SDS011;32500;50.620;3.400;2023-03-30T16:46:12;80.50;;;52.10;;
46753;SDS011;32500;50.620;3.400;2023-03-30T16:48:39;80.13;;;51.97;;
46753;SDS011;32500;50.620;3.400;2023-03-30T16:51:05;80.10;;;52.15;;
46753;SDS011;32500;50.620;3.400;2023-03-30T16:53:31;78.65;;;52.13;;
46753;SDS011;32500;50.620;3.400;2023-03-30T16:55:57;82.47;;;52.10;;
46753;SDS011;32500;50.620;3.400;2023-03-30T16:58:23;81.35;;;51.97;;
46753;SDS011;32500;50.620;3.400;2023-03-30T17:00:50;80.38;;;51.88;;
46753;SDS011;32500;50.620;3.400;2023-03-30T17:03:17;82.13;;;52.10;;
46753;SDS011;32500;50.620;3.400;2023-03-30T17:05:44;79.88;;;51.78;;
46753;SDS011;32500;50.620;3.400;2023-03-30T17:08:17;81.07;;;51.65;;
46753;SDS011;32500;50.620;3.400;2023-03-30T17:10:48;80.20;;;51.85;;
46753;SDS011;32500;50.620;3.400;2023-03-30T17:13:14;79.10;;;51.78;;
46753;SDS011;32500;50.620;3.400;2023-03-30T17:15:40;82.45;;;52.25;;
46753;SDS011;32500;50.620;3.400;2023-03-30T17:18:11;81.80;;;51.85;;
46753;SDS011;32500;50.620;3.400;2023-03-30T17:20:39;79.82;;;51.90;;
46753;SDS011;32500;50.620;3.400;2023-03-30T17:23:12;81.40;;;52.00;;
46753;SDS011;32500;50.620;3.400;2023-03-30T17:25:38;80.90;;;52.03;;
46753;SDS011;32500;50.620;3.400;2023-03-30T17:28:04;80.70;;;51.80;;
46753;SDS011;32500;50.620;3.400;2023-03-30T17:30:36;79.88;;;51.80;;
46753;SDS011;32500;50.620;3.400;2023-03-30T17:33:04;79.93;;;51.63;;